Terminal Aerodrome Forecast
Issued by NWS

Current Version | Previous Version | Text Only | Print | Product List | Glossary On
Versions: 1 2 3 4 5 6 7 8 9 10 11 12 13 14 15 16
000
FTUS46 KMTR 280500
TAFSTS
TAF
KSTS 280520Z 2806/2906 17004KT P6SM SCT015
      TEMPO 2806/2808 BKN015
     FM280800 VRB03KT P6SM OVC012
     FM281200 00000KT 4SM BR OVC007
     FM281900 19007KT P6SM FEW012
     FM290300 VRB03KT P6SM BKN012=

USA.gov is the U.S. government's official web portal to all federal, state and local government web resources and services.